createdAt,value
2022-08-27T00:01:18.439Z,24.50
2022-08-27T00:03:45.803Z,22.05
2022-08-27T00:06:14.584Z,22.95
2022-08-27T00:08:42.635Z,27.15
2022-08-27T00:11:10.110Z,20.58
2022-08-27T00:13:37.023Z,20.13
2022-08-27T00:16:06.754Z,21.27
2022-08-27T00:18:35.384Z,17.65
2022-08-27T00:21:02.841Z,22.75
2022-08-27T00:23:29.962Z,21.05
2022-08-27T00:25:56.509Z,18.45
2022-08-27T00:28:25.994Z,18.65
2022-08-27T00:30:52.603Z,17.10
2022-08-27T00:33:19.373Z,20.02
2022-08-27T00:35:45.879Z,16.15
2022-08-27T00:38:13.108Z,13.95
2022-08-27T00:40:41.028Z,16.70
2022-08-27T00:43:07.624Z,16.83
2022-08-27T00:45:39.820Z,14.55
2022-08-27T00:48:08.971Z,13.95
2022-08-27T00:50:43.603Z,14.70
2022-08-27T00:53:19.488Z,17.27
2022-08-27T00:55:53.004Z,17.30
2022-08-27T00:58:25.189Z,19.65
2022-08-27T01:00:51.904Z,20.50
2022-08-27T01:03:18.730Z,18.63
2022-08-27T01:05:47.737Z,18.88
2022-08-27T01:08:19.177Z,17.20
2022-08-27T01:10:46.392Z,18.65
2022-08-27T01:13:17.070Z,18.35
2022-08-27T01:15:44.123Z,16.58
2022-08-27T01:18:13.365Z,16.27
2022-08-27T01:20:56.449Z,16.73
2022-08-27T01:23:31.693Z,17.92
2022-08-27T01:26:01.811Z,15.82
2022-08-27T01:28:37.485Z,16.67
2022-08-27T01:31:07.180Z,19.45
2022-08-27T01:33:33.704Z,20.42
2022-08-27T01:36:00.361Z,15.23
2022-08-27T01:38:30.736Z,15.20
2022-08-27T01:40:59.347Z,17.30
2022-08-27T01:43:27.520Z,14.23
2022-08-27T01:45:54.027Z,14.20
2022-08-27T01:48:22.018Z,24.40
2022-08-27T01:50:48.831Z,16.60
2022-08-27T01:53:19.212Z,15.95
2022-08-27T01:55:48.341Z,18.05
2022-08-27T01:58:16.472Z,15.95
2022-08-27T02:00:46.726Z,16.13
2022-08-27T02:03:13.901Z,16.90
2022-08-27T02:05:45.043Z,20.33
2022-08-27T02:08:15.598Z,19.10
2022-08-27T02:10:43.007Z,18.63
2022-08-27T02:13:09.557Z,16.88
2022-08-27T02:15:37.284Z,15.57
2022-08-27T02:18:05.889Z,14.20
2022-08-27T02:20:32.469Z,16.00
2022-08-27T02:22:59.395Z,15.02
2022-08-27T02:25:28.831Z,14.65
2022-08-27T02:27:57.378Z,16.95
2022-08-27T02:30:24.496Z,18.05
2022-08-27T02:32:52.984Z,14.38
2022-08-27T02:35:22.852Z,19.73
2022-08-27T02:37:50.050Z,17.25
2022-08-27T02:40:18.972Z,16.15
2022-08-27T02:42:45.738Z,16.13
2022-08-27T02:45:13.783Z,16.60
2022-08-27T02:47:40.831Z,17.13
2022-08-27T02:50:08.833Z,17.15
2022-08-27T02:52:35.508Z,18.20
2022-08-27T02:55:02.008Z,15.70
2022-08-27T02:57:28.516Z,16.77
2022-08-27T02:59:54.977Z,14.65
2022-08-27T03:02:21.577Z,18.77
2022-08-27T03:04:49.545Z,16.33
2022-08-27T03:07:18.892Z,14.18
2022-08-27T03:09:45.713Z,16.40
2022-08-27T03:12:12.827Z,16.75
2022-08-27T03:14:39.584Z,17.05
2022-08-27T03:17:24.567Z,16.30
2022-08-27T03:19:51.024Z,16.80
2022-08-27T03:22:17.498Z,23.55
2022-08-27T03:24:43.940Z,14.35
2022-08-27T03:27:10.401Z,14.40
2022-08-27T03:29:36.879Z,18.20
2022-08-27T03:32:06.847Z,16.80
2022-08-27T03:34:33.884Z,13.90
2022-08-27T03:37:01.380Z,14.75
2022-08-27T03:39:27.842Z,15.98
2022-08-27T03:41:55.765Z,16.02
2022-08-27T03:44:24.093Z,15.82
2022-08-27T03:46:51.632Z,17.38
2022-08-27T03:49:20.570Z,15.80
2022-08-27T03:51:48.497Z,16.63
2022-08-27T03:54:15.026Z,15.60
2022-08-27T03:56:41.675Z,19.08
2022-08-27T03:59:08.853Z,16.17
2022-08-27T04:01:35.857Z,18.80
2022-08-27T04:04:02.919Z,14.15
2022-08-27T04:06:29.356Z,16.48
2022-08-27T04:08:56.289Z,16.70
2022-08-27T04:11:23.354Z,16.30
2022-08-27T04:13:49.802Z,16.48
2022-08-27T04:16:16.398Z,16.60
2022-08-27T04:18:43.008Z,17.00
2022-08-27T04:21:11.416Z,17.65
2022-08-27T04:23:39.134Z,18.40
2022-08-27T04:26:07.781Z,15.20
2022-08-27T04:28:38.376Z,18.70
2022-08-27T04:31:06.194Z,17.10
2022-08-27T04:33:39.385Z,17.42
2022-08-27T04:36:08.661Z,15.95
2022-08-27T04:38:35.127Z,18.38
2022-08-27T04:41:27.445Z,17.30
2022-08-27T04:43:58.766Z,17.23
2022-08-27T04:46:29.051Z,15.07
2022-08-27T04:48:58.024Z,17.25
2022-08-27T04:51:25.510Z,17.50
2022-08-27T04:53:52.765Z,18.02
2022-08-27T04:56:22.321Z,17.35
2022-08-27T04:58:50.372Z,18.60
2022-08-27T05:01:19.191Z,17.92
2022-08-27T05:03:45.967Z,16.83
2022-08-27T05:06:12.635Z,16.67
2022-08-27T05:08:40.052Z,17.25
2022-08-27T05:11:08.820Z,16.45
2022-08-27T05:13:35.477Z,17.23
2022-08-27T05:16:08.175Z,16.42
2022-08-27T05:18:42.274Z,16.00
2022-08-27T05:21:31.749Z,18.48
2022-08-27T05:24:00.171Z,17.50
2022-08-27T05:26:28.051Z,16.75
2022-08-27T05:28:55.149Z,21.23
2022-08-27T05:31:22.606Z,15.88
2022-08-27T05:33:49.682Z,18.15
2022-08-27T05:36:28.393Z,14.50
2022-08-27T05:38:56.602Z,17.40
2022-08-27T05:41:33.930Z,15.70
2022-08-27T05:44:23.976Z,17.15
2022-08-27T05:46:51.126Z,17.53
2022-08-27T05:49:18.418Z,18.45
2022-08-27T05:51:44.948Z,15.60
2022-08-27T05:54:16.674Z,15.93
2022-08-27T05:56:43.347Z,20.92
2022-08-27T05:59:28.650Z,17.75
2022-08-27T06:01:56.372Z,18.75
2022-08-27T06:04:24.859Z,23.35
2022-08-27T06:06:52.649Z,13.65
2022-08-27T06:09:22.674Z,16.17
2022-08-27T06:11:49.574Z,18.17
2022-08-27T06:14:16.282Z,16.67
2022-08-27T06:16:42.765Z,14.82
2022-08-27T06:19:12.032Z,12.70
2022-08-27T06:21:39.340Z,11.77
2022-08-27T06:24:06.116Z,11.57
2022-08-27T06:26:32.616Z,12.27
2022-08-27T06:29:04.371Z,10.20
2022-08-27T06:31:31.063Z,14.77
2022-08-27T06:34:07.337Z,14.65
2022-08-27T06:36:38.879Z,10.15
2022-08-27T06:39:06.679Z,10.25
2022-08-27T06:41:34.377Z,8.50
2022-08-27T06:44:01.315Z,11.10
2022-08-27T06:46:29.342Z,7.00
2022-08-27T06:48:58.844Z,10.88
2022-08-27T06:51:27.708Z,7.40
2022-08-27T06:53:56.720Z,9.73
2022-08-27T06:56:23.711Z,9.00
2022-08-27T06:58:58.571Z,7.60
2022-08-27T07:01:31.556Z,13.27
2022-08-27T07:04:00.096Z,12.07
2022-08-27T07:06:29.350Z,18.42
2022-08-27T07:08:57.059Z,10.50
2022-08-27T07:11:24.385Z,17.58
2022-08-27T07:13:51.401Z,10.73
2022-08-27T07:16:23.292Z,7.88
2022-08-27T07:18:52.220Z,6.43
2022-08-27T07:21:22.520Z,11.27
2022-08-27T07:23:51.601Z,7.32
2022-08-27T07:26:19.577Z,8.00
2022-08-27T07:28:47.615Z,7.45
2022-08-27T07:31:18.102Z,10.70
2022-08-27T07:33:50.638Z,7.82
2022-08-27T07:36:21.452Z,6.85
2022-08-27T07:38:57.097Z,9.38
2022-08-27T07:41:31.116Z,7.75
2022-08-27T07:44:17.861Z,11.50
2022-08-27T07:46:47.860Z,9.15
2022-08-27T07:49:15.212Z,12.38
2022-08-27T07:51:41.682Z,8.40
2022-08-27T07:54:08.968Z,9.00
2022-08-27T07:56:35.453Z,9.10
2022-08-27T07:59:02.004Z,8.48
2022-08-27T08:01:30.047Z,11.18
2022-08-27T08:03:56.726Z,10.68
2022-08-27T08:06:23.274Z,13.05
2022-08-27T08:08:49.875Z,17.50
2022-08-27T08:11:18.461Z,10.52
2022-08-27T08:13:46.183Z,16.75
2022-08-27T08:16:13.541Z,12.02
2022-08-27T08:18:40.629Z,14.85
2022-08-27T08:21:11.889Z,10.95
2022-08-27T08:23:39.467Z,13.05
2022-08-27T08:26:07.034Z,13.88
2022-08-27T08:28:33.943Z,13.52
2022-08-27T08:31:00.955Z,13.52
2022-08-27T08:33:27.965Z,15.38
2022-08-27T08:35:54.604Z,13.15
2022-08-27T08:38:21.297Z,12.55
2022-08-27T08:40:53.165Z,11.65
2022-08-27T08:43:35.657Z,9.48
2022-08-27T08:46:11.035Z,11.52
2022-08-27T08:48:42.744Z,8.10
2022-08-27T08:51:41.513Z,10.32
2022-08-27T08:54:19.951Z,8.93
2022-08-27T08:57:01.785Z,9.07
2022-08-27T08:59:33.629Z,5.88
2022-08-27T09:02:00.219Z,6.53
2022-08-27T09:04:28.116Z,4.43
2022-08-27T09:07:01.291Z,4.20
2022-08-27T09:09:47.580Z,11.65
2022-08-27T09:12:19.234Z,4.95
2022-08-27T09:14:50.948Z,5.38
2022-08-27T09:17:17.441Z,9.38
2022-08-27T09:19:44.032Z,7.57
2022-08-27T09:22:41.804Z,5.60
2022-08-27T09:25:25.424Z,3.65
2022-08-27T09:27:59.531Z,8.05
2022-08-27T09:30:30.939Z,3.80
2022-08-27T09:33:04.154Z,3.90
2022-08-27T09:35:42.232Z,5.03
2022-08-27T09:38:09.564Z,6.55
2022-08-27T09:40:47.005Z,4.38
2022-08-27T09:43:16.845Z,4.05
2022-08-27T09:45:49.528Z,6.30
2022-08-27T09:48:28.968Z,3.92
2022-08-27T09:51:01.737Z,5.47
2022-08-27T09:53:45.742Z,4.60
2022-08-27T09:56:34.015Z,4.18
2022-08-27T09:59:08.148Z,4.70
2022-08-27T10:01:49.220Z,2.80
2022-08-27T10:04:21.627Z,4.22
2022-08-27T10:06:50.140Z,5.25
2022-08-27T10:09:47.721Z,3.30
2022-08-27T10:13:02.490Z,5.13
2022-08-27T10:15:47.667Z,3.85
2022-08-27T10:18:41.215Z,3.10
2022-08-27T10:21:29.605Z,10.68
2022-08-27T10:24:10.945Z,4.60
2022-08-27T10:26:46.537Z,4.38
2022-08-27T10:29:19.793Z,3.38
2022-08-27T10:32:10.993Z,6.80
2022-08-27T10:34:57.835Z,3.85
2022-08-27T10:37:40.527Z,3.05
2022-08-27T10:40:17.971Z,5.15
2022-08-27T10:43:19.552Z,3.90
2022-08-27T10:46:14.478Z,4.43
2022-08-27T10:48:51.213Z,5.20
2022-08-27T10:51:31.193Z,4.63
2022-08-27T10:54:26.144Z,5.75
2022-08-27T10:57:35.173Z,5.47
2022-08-27T11:00:17.472Z,3.97
2022-08-27T11:03:22.329Z,5.15
2022-08-27T11:05:51.020Z,4.47
2022-08-27T11:08:37.471Z,4.93
2022-08-27T11:14:09.495Z,10.27
2022-08-27T11:16:45.620Z,4.00
2022-08-27T11:19:44.937Z,5.07
2022-08-27T11:22:26.103Z,5.28
2022-08-27T11:25:06.099Z,6.00
2022-08-27T11:27:34.572Z,5.40
2022-08-27T11:30:09.707Z,4.53
2022-08-27T11:32:54.785Z,5.70
2022-08-27T11:35:54.228Z,7.10
2022-08-27T11:38:53.577Z,5.90
2022-08-27T11:41:29.309Z,6.15
2022-08-27T11:44:03.948Z,7.40
2022-08-27T11:46:43.856Z,7.00
2022-08-27T11:49:10.631Z,8.20
2022-08-27T11:51:40.637Z,7.60
2022-08-27T11:54:23.016Z,7.03
2022-08-27T11:56:49.828Z,7.25
2022-08-27T11:59:26.974Z,6.20
2022-08-27T12:01:56.150Z,7.07
2022-08-27T12:04:32.513Z,8.02
2022-08-27T12:07:14.298Z,5.97
2022-08-27T12:09:54.660Z,6.07
2022-08-27T12:12:36.245Z,6.43
2022-08-27T12:15:13.201Z,6.13
2022-08-27T12:17:42.672Z,5.63
2022-08-27T12:20:48.747Z,6.82
2022-08-27T12:23:39.997Z,6.03
2022-08-27T12:26:16.945Z,6.30
2022-08-27T12:28:43.536Z,5.90
2022-08-27T12:31:10.215Z,5.85
2022-08-27T12:33:43.152Z,7.32
2022-08-27T12:36:27.947Z,6.07
2022-08-27T12:38:58.302Z,7.03
2022-08-27T12:41:44.203Z,8.38
2022-08-27T12:44:23.163Z,5.32
2022-08-27T12:46:54.592Z,8.35
2022-08-27T12:49:39.023Z,8.70
2022-08-27T12:52:49.014Z,4.45
2022-08-27T12:55:54.141Z,5.18
2022-08-27T12:58:34.068Z,5.35
2022-08-27T13:01:00.644Z,8.65
2022-08-27T13:04:01.074Z,7.65
2022-08-27T13:06:34.449Z,4.63
2022-08-27T13:09:07.111Z,5.90
2022-08-27T13:11:43.995Z,5.13
2022-08-27T13:14:17.564Z,4.65
2022-08-27T13:17:08.831Z,5.35
2022-08-27T13:19:44.926Z,8.48
2022-08-27T13:22:12.392Z,5.97
2022-08-27T13:24:49.048Z,7.15
2022-08-27T13:27:16.105Z,5.63
2022-08-27T13:29:43.500Z,5.55
2022-08-27T13:32:14.094Z,5.38
2022-08-27T13:34:41.479Z,6.78
2022-08-27T13:37:32.014Z,6.38
2022-08-27T13:42:26.376Z,4.88
2022-08-27T13:45:00.147Z,4.32
2022-08-27T13:47:27.889Z,4.95
2022-08-27T13:50:07.618Z,4.43
2022-08-27T13:52:36.564Z,7.38
2022-08-27T13:55:07.891Z,5.93
2022-08-27T13:58:00.830Z,4.78
2022-08-27T14:00:32.198Z,6.15
2022-08-27T14:03:01.426Z,3.97
2022-08-27T14:05:31.910Z,4.20
2022-08-27T14:08:01.301Z,5.00
2022-08-27T14:10:37.562Z,5.28
2022-08-27T14:13:19.897Z,7.32
2022-08-27T14:15:55.136Z,3.55
2022-08-27T14:18:42.253Z,6.05
2022-08-27T14:21:12.843Z,3.97
2022-08-27T14:23:39.558Z,8.95
2022-08-27T14:26:07.756Z,5.75
2022-08-27T14:28:34.196Z,6.00
2022-08-27T14:31:00.714Z,6.47
2022-08-27T14:33:27.913Z,5.55
2022-08-27T14:35:54.575Z,4.63
2022-08-27T14:38:23.382Z,5.70
2022-08-27T14:40:53.134Z,4.05
2022-08-27T14:43:19.891Z,5.32
2022-08-27T14:45:48.306Z,5.43
2022-08-27T14:48:35.540Z,3.92
2022-08-27T14:51:10.547Z,4.68
2022-08-27T14:53:37.035Z,5.00
2022-08-27T14:56:03.966Z,4.57
2022-08-27T14:58:30.451Z,5.05
2022-08-27T15:00:57.745Z,4.72
2022-08-27T15:03:25.508Z,4.25
2022-08-27T15:05:56.197Z,5.82
2022-08-27T15:08:29.034Z,5.43
2022-08-27T15:10:58.789Z,6.70
2022-08-27T15:13:25.276Z,4.82
2022-08-27T15:15:52.440Z,4.30
2022-08-27T15:18:19.506Z,5.95
2022-08-27T15:20:46.042Z,6.80
2022-08-27T15:23:14.591Z,6.22
2022-08-27T15:25:42.025Z,7.85
2022-08-27T15:28:08.525Z,5.60
2022-08-27T15:30:36.901Z,5.90
2022-08-27T15:33:06.029Z,5.70
2022-08-27T15:35:33.435Z,6.43
2022-08-27T15:38:00.081Z,5.68
2022-08-27T15:40:31.828Z,6.32
2022-08-27T15:43:02.305Z,6.22
2022-08-27T15:47:56.401Z,6.32
2022-08-27T15:50:23.245Z,5.88
2022-08-27T15:52:54.829Z,6.90
2022-08-27T15:55:24.830Z,5.20
2022-08-27T15:57:51.662Z,6.28
2022-08-27T16:00:18.674Z,4.28
2022-08-27T16:02:46.258Z,5.43
2022-08-27T16:05:15.367Z,7.57
2022-08-27T16:07:42.695Z,6.00
2022-08-27T16:10:09.979Z,5.53
2022-08-27T16:12:36.541Z,5.47
2022-08-27T16:15:05.716Z,6.40
2022-08-27T16:17:32.785Z,7.03
2022-08-27T16:19:59.256Z,6.68
2022-08-27T16:22:25.958Z,5.78
2022-08-27T16:24:52.414Z,6.53
2022-08-27T16:27:18.871Z,5.90
2022-08-27T16:29:45.333Z,7.85
2022-08-27T16:32:17.246Z,5.90
2022-08-27T16:34:46.205Z,7.35
2022-08-27T16:37:12.689Z,6.57
2022-08-27T16:39:41.386Z,6.15
2022-08-27T16:42:10.154Z,8.52
2022-08-27T16:44:38.493Z,7.35
2022-08-27T16:47:06.360Z,6.60
2022-08-27T16:49:51.438Z,7.32
2022-08-27T16:52:19.275Z,7.05
2022-08-27T16:54:45.902Z,7.88
2022-08-27T16:57:12.504Z,8.30
2022-08-27T16:59:39.009Z,6.55
2022-08-27T17:02:17.438Z,8.40
2022-08-27T17:04:49.291Z,6.75
2022-08-27T17:07:32.079Z,6.03
2022-08-27T17:10:01.446Z,5.55
2022-08-27T17:12:31.969Z,5.22
2022-08-27T17:15:00.512Z,9.50
2022-08-27T17:17:29.984Z,6.13
2022-08-27T17:19:56.962Z,8.90
2022-08-27T17:22:23.401Z,6.63
2022-08-27T17:24:49.853Z,7.43
2022-08-27T17:27:20.236Z,5.82
2022-08-27T17:29:46.798Z,5.85
2022-08-27T17:32:13.393Z,8.10
2022-08-27T17:34:40.225Z,7.75
2022-08-27T17:37:06.699Z,5.78
2022-08-27T17:39:33.165Z,5.15
2022-08-27T17:41:59.628Z,6.60
2022-08-27T17:44:35.071Z,7.30
2022-08-27T17:47:04.785Z,7.40
2022-08-27T17:49:31.390Z,7.70
2022-08-27T17:52:02.205Z,5.78
2022-08-27T17:54:37.427Z,5.80
2022-08-27T17:57:10.440Z,6.03
2022-08-27T17:59:36.891Z,7.97
2022-08-27T18:02:03.657Z,7.35
2022-08-27T18:04:30.297Z,5.25
2022-08-27T18:06:56.779Z,7.00
2022-08-27T18:09:23.273Z,7.15
2022-08-27T18:11:49.784Z,6.13
2022-08-27T18:14:18.527Z,7.03
2022-08-27T18:16:45.756Z,8.77
2022-08-27T18:19:12.424Z,6.60
2022-08-27T18:21:46.450Z,6.60
2022-08-27T18:24:14.274Z,9.18
2022-08-27T18:26:40.813Z,8.38
2022-08-27T18:29:07.422Z,7.40
2022-08-27T18:31:34.148Z,7.78
2022-08-27T18:34:01.004Z,9.73
2022-08-27T18:36:28.025Z,8.98
2022-08-27T18:38:54.581Z,9.15
2022-08-27T18:41:21.837Z,6.95
2022-08-27T18:43:49.037Z,6.97
2022-08-27T18:46:17.658Z,7.45
2022-08-27T18:48:44.778Z,8.55
2022-08-27T18:51:14.413Z,8.40
2022-08-27T18:53:42.911Z,10.40
2022-08-27T18:56:16.687Z,8.43
2022-08-27T18:58:43.637Z,8.93
2022-08-27T19:01:13.808Z,8.88
2022-08-27T19:03:45.532Z,9.82
2022-08-27T19:06:12.998Z,7.82
2022-08-27T19:08:40.310Z,8.77
2022-08-27T19:11:06.805Z,9.35
2022-08-27T19:13:33.708Z,10.38
2022-08-27T19:16:06.929Z,9.05
2022-08-27T19:18:36.631Z,8.07
2022-08-27T19:21:03.416Z,10.10
2022-08-27T19:23:29.885Z,8.80
2022-08-27T19:25:58.545Z,10.25
2022-08-27T19:28:30.009Z,9.30
2022-08-27T19:30:56.479Z,7.70
2022-08-27T19:33:23.213Z,5.70
2022-08-27T19:35:49.981Z,7.28
2022-08-27T19:38:16.633Z,7.72
2022-08-27T19:40:43.175Z,5.82
2022-08-27T19:43:10.680Z,7.50
2022-08-27T19:45:40.494Z,6.68
2022-08-27T19:48:08.005Z,5.10
2022-08-27T19:50:35.081Z,6.15
2022-08-27T19:53:01.511Z,5.18
2022-08-27T19:55:27.943Z,4.95
2022-08-27T19:57:54.503Z,5.38
2022-08-27T20:00:24.661Z,6.53
2022-08-27T20:02:54.776Z,7.40
2022-08-27T20:05:22.729Z,7.68
2022-08-27T20:07:51.705Z,6.57
2022-08-27T20:10:21.613Z,7.28
2022-08-27T20:12:49.126Z,7.90
2022-08-27T20:15:16.693Z,6.50
2022-08-27T20:17:44.041Z,6.13
2022-08-27T20:20:12.712Z,9.20
2022-08-27T20:22:39.752Z,7.85
2022-08-27T20:25:07.098Z,7.68
2022-08-27T20:27:33.934Z,7.22
2022-08-27T20:30:00.480Z,5.85
2022-08-27T20:32:30.006Z,6.97
2022-08-27T20:34:57.102Z,7.03
2022-08-27T20:37:24.298Z,12.02
2022-08-27T20:39:52.355Z,7.05
2022-08-27T20:42:19.947Z,7.10
2022-08-27T20:44:46.866Z,7.72
2022-08-27T20:47:14.892Z,7.38
2022-08-27T20:49:44.266Z,6.57
2022-08-27T20:52:12.689Z,7.50
2022-08-27T20:54:39.837Z,10.07
2022-08-27T20:57:06.538Z,11.43
2022-08-27T20:59:51.569Z,8.93
2022-08-27T21:02:22.316Z,9.95
2022-08-27T21:04:49.165Z,11.82
2022-08-27T21:07:17.338Z,13.32
2022-08-27T21:09:55.934Z,11.43
2022-08-27T21:12:23.864Z,13.23
2022-08-27T21:14:56.005Z,10.32
2022-08-27T21:17:24.955Z,10.48
2022-08-27T21:19:51.537Z,8.90
2022-08-27T21:22:18.408Z,8.63
2022-08-27T21:24:47.104Z,10.90
2022-08-27T21:27:14.706Z,11.63
2022-08-27T21:29:41.286Z,11.15
2022-08-27T21:32:09.298Z,12.30
2022-08-27T21:34:35.810Z,13.35
2022-08-27T21:37:03.726Z,15.07
2022-08-27T21:39:32.705Z,10.88
2022-08-27T21:42:00.667Z,12.60
2022-08-27T21:44:27.936Z,14.10
2022-08-27T21:46:54.598Z,12.88
2022-08-27T21:49:21.312Z,13.82
2022-08-27T21:51:47.829Z,13.50
2022-08-27T21:54:15.609Z,11.65
2022-08-27T21:56:43.151Z,12.73
2022-08-27T21:59:09.848Z,11.85
2022-08-27T22:01:36.468Z,14.52
2022-08-27T22:04:03.332Z,13.70
2022-08-27T22:06:30.182Z,12.68
2022-08-27T22:08:56.762Z,13.27
2022-08-27T22:11:24.448Z,15.77
2022-08-27T22:13:51.674Z,13.57
2022-08-27T22:16:18.999Z,14.32
2022-08-27T22:18:45.577Z,13.48
2022-08-27T22:21:12.269Z,14.38
2022-08-27T22:23:38.774Z,15.52
2022-08-27T22:26:11.259Z,16.67
2022-08-27T22:28:37.755Z,13.82
2022-08-27T22:31:04.247Z,15.68
2022-08-27T22:33:30.752Z,13.73
2022-08-27T22:35:57.205Z,14.40
2022-08-27T22:38:23.693Z,13.45
2022-08-27T22:40:52.032Z,13.05
2022-08-27T22:43:19.548Z,13.98
2022-08-27T22:45:46.042Z,13.95
2022-08-27T22:48:12.821Z,13.93
2022-08-27T22:50:39.450Z,12.20
2022-08-27T22:53:06.025Z,14.85
2022-08-27T22:55:32.564Z,15.85
2022-08-27T22:58:01.242Z,12.98
2022-08-27T23:00:31.713Z,14.65
2022-08-27T23:02:58.253Z,13.75
2022-08-27T23:05:26.029Z,14.75
2022-08-27T23:07:53.263Z,13.30
2022-08-27T23:10:21.978Z,16.23
2022-08-27T23:12:48.767Z,12.13
2022-08-27T23:15:18.839Z,18.85
2022-08-27T23:17:45.315Z,17.27
2022-08-27T23:20:12.631Z,16.48
2022-08-27T23:22:39.812Z,16.13
2022-08-27T23:25:27.053Z,16.95
2022-08-27T23:27:54.232Z,18.98
2022-08-27T23:30:22.286Z,14.27
2022-08-27T23:32:53.655Z,15.18
2022-08-27T23:35:21.776Z,16.17
2022-08-27T23:37:49.793Z,16.15
2022-08-27T23:40:17.551Z,15.52
2022-08-27T23:42:45.374Z,19.20
2022-08-27T23:45:15.193Z,17.17
2022-08-27T23:47:41.928Z,14.30
2022-08-27T23:50:09.419Z,21.23
2022-08-27T23:52:36.378Z,20.77
2022-08-27T23:55:04.248Z,17.23
2022-08-27T23:57:30.731Z,19.92
2022-08-27T23:59:57.260Z,28.15
